Antares — DFJQ — position and weather

sailwx.info

Track history (hours):
 
Tides and Currents Weather Stations Pressure Air Temp Water Temp Dewpoint Dewpoint Depression Visibility Wind Speed Wind Dir Waves Ship Positions

Antares

Last reported at 2016-May-24 16:32 UTC. Time now 2016-May-24 17:42 UTC.
Position N 51°56' E 003°48'.

Length 79 m; draft 4.5 m.

Type: Ship. MMSI: 218777000.

Date/timePositionNaut miles runAvg speedWind from/ knotsBaromVisibWave heightAir tempDewpointWater temp
2016-May-24 16:32N 51°56' E 003°48'0 0.1
2016-May-24 15:32N 51°56' E 003°48'0 0.1
2016-May-24 14:26N 51°56' E 003°48'0 0.1
2016-May-24 13:29N 51°56' E 003°48'0 0.0
2016-May-24 12:32N 51°56' E 003°47'0 0.0
2016-May-24 11:32N 51°56' E 003°47'0 0.0
2016-May-24 10:23N 51°56' E 003°48'0 0.0
2016-May-24 09:29N 51°56' E 003°48'0 0.0
2016-May-24 08:29N 51°56' E 003°48'0 0.0
2016-May-24 07:29N 51°56' E 003°48'0 0.0
2016-May-24 06:29N 51°56' E 003°48'0 0.1
2016-May-24 05:32N 51°56' E 003°48'0 0.1
2016-May-24 04:26N 51°56' E 003°48'0 0.0
2016-May-24 03:29N 51°56' E 003°48'0 0.1
2016-May-24 02:32N 51°56' E 003°48'0 0.1
2016-May-24 01:32N 51°56' E 003°48'0 0.1
2016-May-24 00:32N 51°56' E 003°48'0 0.0
2016-May-23 23:26N 51°56' E 003°48'0 0.0
2016-May-23 22:32N 51°56' E 003°48'0 0.0
2016-May-23 21:29N 51°56' E 003°48'0 0.0
2016-May-23 20:32N 51°56' E 003°48'0 0.1
2016-May-23 19:29N 51°56' E 003°48'0 0.0
2016-May-23 18:32N 51°56' E 003°48'0 0.1
2016-May-23 17:29N 51°56' E 003°48'0 0.1
2016-May-23 16:32N 51°56' E 003°48'3 3.5
2016-May-23 15:33N 51°57' E 003°42'52 9.8
2016-May-23 10:14N 51°48' E 002°19'6 7.9
2016-May-23 09:32N 51°44' E 002°12'8 7.9
2016-May-23 08:33N 51°40' E 002°02'8 8.3
2016-May-23 07:33N 51°35' E 001°51'9 9.5
2016-May-23 06:33N 51°29' E 001°39'8 8.5
2016-May-23 05:33N 51°28' E 001°25'1212.4
2016-May-23 04:33N 51°30' E 001°06'1312.8
2016-May-23 03:33N 51°29' E 000°45'1111.3
2016-May-23 02:33N 51°28' E 000°27'8 7.9
2016-May-23 01:34N 51°28' E 000°14'5 4.4
2016-May-23 00:32N 51°31' E 000°08'0 0.0
2016-May-22 23:29N 51°31' E 000°08'0 0.0
2016-May-22 22:32N 51°31' E 000°08'0 0.0
2016-May-22 21:32N 51°31' E 000°08'0 0.0
2016-May-22 20:32N 51°31' E 000°08'0 0.0
2016-May-22 19:29N 51°31' E 000°08'0 0.0
2016-May-22 18:32N 51°31' E 000°08'0 0.0
2016-May-22 17:32N 51°31' E 000°08'0 0.0
2016-May-22 16:32N 51°31' E 000°08'3 3.0
2016-May-22 15:33N 51°29' E 000°12'6 6.4
2016-May-22 14:34N 51°27' E 000°22'8 7.9
2016-May-22 13:33N 51°30' E 000°33'10 9.7
2016-May-22 12:33N 51°30' E 000°49'10 9.9
2016-May-22 11:33N 51°30' E 001°05'1211.5
2016-May-22 10:33N 51°28' E 001°23'4 3.5
2016-May-22 09:33N 51°25' E 001°24'1 1.0
2016-May-22 08:33N 51°25' E 001°22'0 0.0
2016-May-22 07:33N 51°25' E 001°22'0 0.1
2016-May-22 06:33N 51°25' E 001°23'0 0.0
2016-May-22 05:33N 51°25' E 001°23'0 0.0
2016-May-22 04:33N 51°25' E 001°23'0 0.0
2016-May-22 03:33N 51°25' E 001°23'0 0.0
2016-May-22 02:33N 51°25' E 001°23'0 0.0
2016-May-22 01:34N 51°25' E 001°23'0 0.1
2016-May-22 00:33N 51°25' E 001°22'0 0.0
2016-May-21 23:34N 51°25' E 001°22'0 0.0
2016-May-21 22:33N 51°25' E 001°22'0 0.0
2016-May-21 21:33N 51°25' E 001°22'0 0.0
2016-May-21 20:34N 51°25' E 001°22'0 0.0
2016-May-21 19:33N 51°25' E 001°22'0 0.1
2016-May-21 18:33N 51°25' E 001°23'0 0.0
2016-May-21 17:33N 51°25' E 001°23'0 0.0
2016-May-21 16:33N 51°25' E 001°23'0 0.0
2016-May-21 15:33N 51°25' E 001°23'0 0.0
2016-May-21 14:33N 51°25' E 001°23'0 0.0
2016-May-21 13:33N 51°25' E 001°23'0 0.0
2016-May-21 12:33N 51°25' E 001°23'0 0.2
2016-May-21 11:33N 51°25' E 001°22'0 0.0
2016-May-21 10:33N 51°25' E 001°22'0 0.0
2016-May-21 09:34N 51°25' E 001°22'0 0.1
2016-May-21 08:33N 51°25' E 001°22'0 0.1
2016-May-21 07:33N 51°25' E 001°23'0 0.0
2016-May-21 06:33N 51°25' E 001°23'0 0.1
2016-May-21 05:33N 51°25' E 001°23'0 0.0
2016-May-21 04:33N 51°25' E 001°23'0 0.0
2016-May-21 03:33N 51°25' E 001°23'0 0.0
2016-May-21 02:33N 51°25' E 001°23'0 0.0
2016-May-21 01:33N 51°25' E 001°23'0 0.1
2016-May-21 00:33N 51°25' E 001°23'0 0.1
2016-May-20 23:33N 51°25' E 001°22'0 0.0
2016-May-20 22:33N 51°25' E 001°22'0 0.0
2016-May-20 21:33N 51°25' E 001°22'0 0.0
2016-May-20 20:33N 51°25' E 001°22'0 0.1
2016-May-20 19:33N 51°25' E 001°23'0 0.0
2016-May-20 18:33N 51°25' E 001°23'0 0.0
2016-May-20 17:33N 51°25' E 001°23'0 0.0
2016-May-20 16:33N 51°25' E 001°23'0 0.0
2016-May-20 15:33N 51°25' E 001°23'5 5.4
2016-May-20 14:33N 51°27' E 001°31'8 7.8
2016-May-20 13:33N 51°31' E 001°41'7 7.3
2016-May-20 12:33N 51°35' E 001°51'7 7.3
2016-May-20 11:33N 51°39' E 002°01'8 8.4
2016-May-20 10:33N 51°43' E 002°13'54 9.0
2016-May-20 04:33N 52°03' E 003°34'8 7.8
2016-May-20 03:33N 52°03' E 003°46'7 7.3
2016-May-20 02:33N 52°02' E 003°58'9 8.8
2016-May-20 01:33N 51°57' E 004°10'2 1.6
2016-May-20 00:31N 51°56' E 004°12'0 0.0
2016-May-19 23:31N 51°56' E 004°12'0 0.0
2016-May-19 22:31N 51°56' E 004°12'0 0.0
2016-May-19 21:28N 51°56' E 004°12'0 0.0
2016-May-19 20:31N 51°56' E 004°12'0 0.0
2016-May-19 19:31N 51°56' E 004°12'0 0.0
2016-May-19 18:31N 51°56' E 004°12'0 0.0
2016-May-19 17:28N 51°56' E 004°12'0 0.0
2016-May-19 16:31N 51°56' E 004°12'0 0.0
2016-May-19 15:31N 51°56' E 004°12'0 0.0
2016-May-19 14:34N 51°56' E 004°12'0 0.0
2016-May-19 13:31N 51°56' E 004°12'0 0.0
2016-May-19 12:28N 51°56' E 004°12'0 0.0
2016-May-19 11:31N 51°56' E 004°12'2 1.7
2016-May-19 10:34N 51°57' E 004°10'9 9.5
2016-May-19 09:33N 51°60' E 003°55'6 6.0
2016-May-19 08:33N 51°58' E 003°46'2 1.6
2016-May-19 07:31N 51°56' E 003°45'0 0.0
2016-May-19 06:31N 51°56' E 003°45'0 0.1
2016-May-19 05:31N 51°56' E 003°46'0 0.1
2016-May-19 04:31N 51°57' E 003°46'0 0.0
2016-May-19 03:31N 51°57' E 003°46'0 0.0
2016-May-19 02:31N 51°57' E 003°46'0 0.0
2016-May-19 01:28N 51°57' E 003°46'0 0.0
2016-May-19 00:31N 51°57' E 003°46'0 0.0
2016-May-18 23:31N 51°57' E 003°46'0 0.0
2016-May-18 22:31N 51°57' E 003°45'0 0.1
2016-May-18 21:31N 51°56' E 003°45'0 0.0
2016-May-18 20:25N 51°56' E 003°45'0 0.0
2016-May-18 19:25N 51°56' E 003°45'0 0.0
2016-May-18 18:28N 51°56' E 003°45'0 0.0
2016-May-18 17:31N 51°56' E 003°45'0 0.0
2016-May-18 16:25N 51°56' E 003°46'0 0.1
2016-May-18 15:31N 51°56' E 003°46'0 0.1
2016-May-18 14:31N 51°56' E 003°46'0 0.0
2016-May-18 13:28N 51°56' E 003°46'0 0.0
2016-May-18 12:31N 51°56' E 003°46'0 0.0
2016-May-18 11:07N 51°56' E 003°46'0 0.0
2016-May-18 10:31N 51°56' E 003°46'0 0.0
2016-May-18 09:28N 51°56' E 003°46'0 0.1
2016-May-18 08:31N 51°56' E 003°45'0 0.0
2016-May-18 07:28N 51°56' E 003°45'5 5.6
2016-May-18 06:33N 51°59' E 003°38'58 9.3
2016-May-18 00:15N 52°37' E 002°26'9 8.7
2016-May-17 23:14N 52°43' E 002°15'6 8.4
2016-May-17 22:32N 52°47' E 002°08'8 8.5
2016-May-17 21:33N 52°53' E 001°59'9 9.2
2016-May-17 20:33N 52°58' E 001°46'1010.0
2016-May-17 19:33N 53°04' E 001°32'1010.4
2016-May-17 18:33N 53°10' E 001°19'1010.5
2016-May-17 17:33N 53°17' E 001°06'1110.5
2016-May-17 16:31N 53°23' E 000°50'1110.3
2016-May-17 15:27N 53°28' E 000°33'910.0
2016-May-17 14:33N 53°30' E 000°19'9 8.8
2016-May-17 13:33N 53°33' E 000°05'1 0.6
2016-May-17 12:31N 53°33' E 000°04'0 0.0
2016-May-17 11:31N 53°33' E 000°04'0 0.0
2016-May-17 10:31N 53°33' E 000°04'0 0.1
2016-May-17 09:32N 53°33' E 000°04'0 0.1
2016-May-17 08:31N 53°33' E 000°04'0 0.0
2016-May-17 07:25N 53°33' E 000°04'0 0.0
2016-May-17 06:31N 53°33' E 000°04'0 0.0
2016-May-17 05:31N 53°33' E 000°04'0 0.0
2016-May-17 04:31N 53°33' E 000°04'0 0.0
2016-May-17 03:31N 53°33' E 000°04'0 0.1
2016-May-17 02:28N 53°33' E 000°04'0 0.0
2016-May-17 01:31N 53°33' E 000°04'1 1.0
2016-May-17 00:33N 53°34' E 000°03'8 8.4
2016-May-16 23:33N 53°38' W 000°09'1 1.4
2016-May-16 22:31N 53°38' W 000°11'0 0.0
2016-May-16 21:31N 53°38' W 000°11'0 0.0
2016-May-16 20:31N 53°38' W 000°11'0 0.0
2016-May-16 19:31N 53°38' W 000°11'0 0.0
2016-May-16 18:31N 53°38' W 000°11'0 0.0
2016-May-16 17:31N 53°38' W 000°11'0 0.0
2016-May-16 16:31N 53°38' W 000°11'0 0.0
2016-May-16 15:31N 53°38' W 000°11'0 0.0
2016-May-16 14:31N 53°38' W 000°11'0 0.0
2016-May-16 13:31N 53°38' W 000°11'0 0.0
2016-May-16 12:32N 53°38' W 000°11'0 0.0
2016-May-16 11:31N 53°38' W 000°11'0 0.0
2016-May-16 10:32N 53°38' W 000°11'0 0.0
2016-May-16 09:31N 53°38' W 000°11'0 0.0
2016-May-16 08:31N 53°38' W 000°11'0 0.0
2016-May-16 07:31N 53°38' W 000°11'0 0.0
2016-May-16 06:31N 53°38' W 000°11'0 0.0
2016-May-16 05:31N 53°38' W 000°11'0 0.0
2016-May-16 04:31N 53°38' W 000°11'0 0.0
2016-May-16 03:31N 53°38' W 000°11'0 0.0
2016-May-16 02:33N 53°38' W 000°11'0 0.0
2016-May-16 01:33N 53°38' W 000°11'0 0.0
2016-May-16 00:33N 53°38' W 000°11'5 5.4
2016-May-15 23:33N 53°36' W 000°03'10 9.8
2016-May-15 22:33N 53°33' E 000°13'8 7.7
2016-May-15 21:33N 53°35' E 000°25'0 0.1
2016-May-15 20:16N 53°35' E 000°25'0 0.0
2016-May-15 19:31N 53°35' E 000°25'0 0.0
2016-May-15 18:31N 53°35' E 000°25'0 0.0
2016-May-15 17:34N 53°35' E 000°25'0 0.0
2016-May-15 16:25N 53°35' E 000°25'0 0.2
2016-May-15 15:25N 53°35' E 000°25'0 0.1
2016-May-15 14:25N 53°35' E 000°25'0 0.0
2016-May-15 13:28N 53°35' E 000°25'0 0.0
2016-May-15 12:10N 53°35' E 000°25'0 0.0
2016-May-15 11:25N 53°35' E 000°25'0 0.0
2016-May-15 10:31N 53°35' E 000°25'0 0.0
2016-May-15 09:31N 53°35' E 000°25'0 0.1
2016-May-15 08:33N 53°35' E 000°25'16 7.8
2016-May-15 06:31N 53°25' E 000°46'9 9.2
2016-May-15 05:32N 53°21' E 000°59'16 8.0
2016-May-15 03:33N 53°12' E 001°21'7 6.7
2016-May-15 02:33N 53°07' E 001°29'6 6.2
2016-May-15 01:33N 53°03' E 001°37'6 6.1
2016-May-15 00:33N 52°60' E 001°45'7 6.8
2016-May-14 23:33N 52°56' E 001°55'8 7.5
2016-May-14 22:31N 52°51' E 002°04'  
Track history (hours):
 
Tides and Currents Weather Stations Pressure Air Temp Water Temp Dewpoint Dewpoint Depression Visibility Wind Speed Wind Dir Waves Ship Positions

Antares

Last reported at 2016-May-24 16:32 UTC. Time now 2016-May-24 17:42 UTC.
Position N 51°56' E 003°48'.

Length 79 m; draft 4.5 m.

Type: Ship. MMSI: 218777000.

Date/timePositionNaut miles runAvg speedWind from/ knotsBaromVisibWave heightAir tempDewpointWater temp
2016-May-24 16:32N 51°56' E 003°48'0 0.1
2016-May-24 15:32N 51°56' E 003°48'0 0.1
2016-May-24 14:26N 51°56' E 003°48'0 0.1
2016-May-24 13:29N 51°56' E 003°48'0 0.0
2016-May-24 12:32N 51°56' E 003°47'0 0.0
2016-May-24 11:32N 51°56' E 003°47'0 0.0
2016-May-24 10:23N 51°56' E 003°48'0 0.0
2016-May-24 09:29N 51°56' E 003°48'0 0.0
2016-May-24 08:29N 51°56' E 003°48'0 0.0
2016-May-24 07:29N 51°56' E 003°48'0 0.0
2016-May-24 06:29N 51°56' E 003°48'0 0.1
2016-May-24 05:32N 51°56' E 003°48'0 0.1
2016-May-24 04:26N 51°56' E 003°48'0 0.0
2016-May-24 03:29N 51°56' E 003°48'0 0.1
2016-May-24 02:32N 51°56' E 003°48'0 0.1
2016-May-24 01:32N 51°56' E 003°48'0 0.1
2016-May-24 00:32N 51°56' E 003°48'0 0.0
2016-May-23 23:26N 51°56' E 003°48'0 0.0
2016-May-23 22:32N 51°56' E 003°48'0 0.0
2016-May-23 21:29N 51°56' E 003°48'0 0.0
2016-May-23 20:32N 51°56' E 003°48'0 0.1
2016-May-23 19:29N 51°56' E 003°48'0 0.0
2016-May-23 18:32N 51°56' E 003°48'0 0.1
2016-May-23 17:29N 51°56' E 003°48'0 0.1
2016-May-23 16:32N 51°56' E 003°48'3 3.5
2016-May-23 15:33N 51°57' E 003°42'52 9.8
2016-May-23 10:14N 51°48' E 002°19'6 7.9
2016-May-23 09:32N 51°44' E 002°12'8 7.9
2016-May-23 08:33N 51°40' E 002°02'8 8.3
2016-May-23 07:33N 51°35' E 001°51'9 9.5
2016-May-23 06:33N 51°29' E 001°39'8 8.5
2016-May-23 05:33N 51°28' E 001°25'1212.4
2016-May-23 04:33N 51°30' E 001°06'1312.8
2016-May-23 03:33N 51°29' E 000°45'1111.3
2016-May-23 02:33N 51°28' E 000°27'8 7.9
2016-May-23 01:34N 51°28' E 000°14'5 4.4
2016-May-23 00:32N 51°31' E 000°08'0 0.0
2016-May-22 23:29N 51°31' E 000°08'0 0.0
2016-May-22 22:32N 51°31' E 000°08'0 0.0
2016-May-22 21:32N 51°31' E 000°08'0 0.0
2016-May-22 20:32N 51°31' E 000°08'0 0.0
2016-May-22 19:29N 51°31' E 000°08'0 0.0
2016-May-22 18:32N 51°31' E 000°08'0 0.0
2016-May-22 17:32N 51°31' E 000°08'0 0.0
2016-May-22 16:32N 51°31' E 000°08'3 3.0
2016-May-22 15:33N 51°29' E 000°12'6 6.4
2016-May-22 14:34N 51°27' E 000°22'8 7.9
2016-May-22 13:33N 51°30' E 000°33'10 9.7
2016-May-22 12:33N 51°30' E 000°49'10 9.9
2016-May-22 11:33N 51°30' E 001°05'1211.5
2016-May-22 10:33N 51°28' E 001°23'4 3.5
2016-May-22 09:33N 51°25' E 001°24'1 1.0
2016-May-22 08:33N 51°25' E 001°22'0 0.0
2016-May-22 07:33N 51°25' E 001°22'0 0.1
2016-May-22 06:33N 51°25' E 001°23'0 0.0
2016-May-22 05:33N 51°25' E 001°23'0 0.0
2016-May-22 04:33N 51°25' E 001°23'0 0.0
2016-May-22 03:33N 51°25' E 001°23'0 0.0
2016-May-22 02:33N 51°25' E 001°23'0 0.0
2016-May-22 01:34N 51°25' E 001°23'0 0.1
2016-May-22 00:33N 51°25' E 001°22'0 0.0
2016-May-21 23:34N 51°25' E 001°22'0 0.0
2016-May-21 22:33N 51°25' E 001°22'0 0.0
2016-May-21 21:33N 51°25' E 001°22'0 0.0
2016-May-21 20:34N 51°25' E 001°22'0 0.0
2016-May-21 19:33N 51°25' E 001°22'0 0.1
2016-May-21 18:33N 51°25' E 001°23'0 0.0
2016-May-21 17:33N 51°25' E 001°23'0 0.0
2016-May-21 16:33N 51°25' E 001°23'0 0.0
2016-May-21 15:33N 51°25' E 001°23'0 0.0
2016-May-21 14:33N 51°25' E 001°23'0 0.0
2016-May-21 13:33N 51°25' E 001°23'0 0.0
2016-May-21 12:33N 51°25' E 001°23'0 0.2
2016-May-21 11:33N 51°25' E 001°22'0 0.0
2016-May-21 10:33N 51°25' E 001°22'0 0.0
2016-May-21 09:34N 51°25' E 001°22'0 0.1
2016-May-21 08:33N 51°25' E 001°22'0 0.1
2016-May-21 07:33N 51°25' E 001°23'0 0.0
2016-May-21 06:33N 51°25' E 001°23'0 0.1
2016-May-21 05:33N 51°25' E 001°23'0 0.0
2016-May-21 04:33N 51°25' E 001°23'0 0.0
2016-May-21 03:33N 51°25' E 001°23'0 0.0
2016-May-21 02:33N 51°25' E 001°23'0 0.0
2016-May-21 01:33N 51°25' E 001°23'0 0.1
2016-May-21 00:33N 51°25' E 001°23'0 0.1
2016-May-20 23:33N 51°25' E 001°22'0 0.0
2016-May-20 22:33N 51°25' E 001°22'0 0.0
2016-May-20 21:33N 51°25' E 001°22'0 0.0
2016-May-20 20:33N 51°25' E 001°22'0 0.1
2016-May-20 19:33N 51°25' E 001°23'0 0.0
2016-May-20 18:33N 51°25' E 001°23'0 0.0
2016-May-20 17:33N 51°25' E 001°23'0 0.0
2016-May-20 16:33N 51°25' E 001°23'0 0.0
2016-May-20 15:33N 51°25' E 001°23'5 5.4
2016-May-20 14:33N 51°27' E 001°31'8 7.8
2016-May-20 13:33N 51°31' E 001°41'7 7.3
2016-May-20 12:33N 51°35' E 001°51'7 7.3
2016-May-20 11:33N 51°39' E 002°01'8 8.4
2016-May-20 10:33N 51°43' E 002°13'54 9.0
2016-May-20 04:33N 52°03' E 003°34'8 7.8
2016-May-20 03:33N 52°03' E 003°46'7 7.3
2016-May-20 02:33N 52°02' E 003°58'9 8.8
2016-May-20 01:33N 51°57' E 004°10'2 1.6
2016-May-20 00:31N 51°56' E 004°12'0 0.0
2016-May-19 23:31N 51°56' E 004°12'0 0.0
2016-May-19 22:31N 51°56' E 004°12'0 0.0
2016-May-19 21:28N 51°56' E 004°12'0 0.0
2016-May-19 20:31N 51°56' E 004°12'0 0.0
2016-May-19 19:31N 51°56' E 004°12'0 0.0
2016-May-19 18:31N 51°56' E 004°12'0 0.0
2016-May-19 17:28N 51°56' E 004°12'0 0.0
2016-May-19 16:31N 51°56' E 004°12'0 0.0
2016-May-19 15:31N 51°56' E 004°12'0 0.0
2016-May-19 14:34N 51°56' E 004°12'0 0.0
2016-May-19 13:31N 51°56' E 004°12'0 0.0
2016-May-19 12:28N 51°56' E 004°12'0 0.0
2016-May-19 11:31N 51°56' E 004°12'2 1.7
2016-May-19 10:34N 51°57' E 004°10'9 9.5
2016-May-19 09:33N 51°60' E 003°55'6 6.0
2016-May-19 08:33N 51°58' E 003°46'2 1.6
2016-May-19 07:31N 51°56' E 003°45'0 0.0
2016-May-19 06:31N 51°56' E 003°45'0 0.1
2016-May-19 05:31N 51°56' E 003°46'0 0.1
2016-May-19 04:31N 51°57' E 003°46'0 0.0
2016-May-19 03:31N 51°57' E 003°46'0 0.0
2016-May-19 02:31N 51°57' E 003°46'0 0.0
2016-May-19 01:28N 51°57' E 003°46'0 0.0
2016-May-19 00:31N 51°57' E 003°46'0 0.0
2016-May-18 23:31N 51°57' E 003°46'0 0.0
2016-May-18 22:31N 51°57' E 003°45'0 0.1
2016-May-18 21:31N 51°56' E 003°45'0 0.0
2016-May-18 20:25N 51°56' E 003°45'0 0.0
2016-May-18 19:25N 51°56' E 003°45'0 0.0
2016-May-18 18:28N 51°56' E 003°45'0 0.0
2016-May-18 17:31N 51°56' E 003°45'0 0.0
2016-May-18 16:25N 51°56' E 003°46'0 0.1
2016-May-18 15:31N 51°56' E 003°46'0 0.1
2016-May-18 14:31N 51°56' E 003°46'0 0.0
2016-May-18 13:28N 51°56' E 003°46'0 0.0
2016-May-18 12:31N 51°56' E 003°46'0 0.0
2016-May-18 11:07N 51°56' E 003°46'0 0.0
2016-May-18 10:31N 51°56' E 003°46'0 0.0
2016-May-18 09:28N 51°56' E 003°46'0 0.1
2016-May-18 08:31N 51°56' E 003°45'0 0.0
2016-May-18 07:28N 51°56' E 003°45'5 5.6
2016-May-18 06:33N 51°59' E 003°38'58 9.3
2016-May-18 00:15N 52°37' E 002°26'9 8.7
2016-May-17 23:14N 52°43' E 002°15'6 8.4
2016-May-17 22:32N 52°47' E 002°08'8 8.5
2016-May-17 21:33N 52°53' E 001°59'9 9.2
2016-May-17 20:33N 52°58' E 001°46'1010.0
2016-May-17 19:33N 53°04' E 001°32'1010.4
2016-May-17 18:33N 53°10' E 001°19'1010.5
2016-May-17 17:33N 53°17' E 001°06'1110.5
2016-May-17 16:31N 53°23' E 000°50'1110.3
2016-May-17 15:27N 53°28' E 000°33'910.0
2016-May-17 14:33N 53°30' E 000°19'9 8.8
2016-May-17 13:33N 53°33' E 000°05'1 0.6
2016-May-17 12:31N 53°33' E 000°04'0 0.0
2016-May-17 11:31N 53°33' E 000°04'0 0.0
2016-May-17 10:31N 53°33' E 000°04'0 0.1
2016-May-17 09:32N 53°33' E 000°04'0 0.1
2016-May-17 08:31N 53°33' E 000°04'0 0.0
2016-May-17 07:25N 53°33' E 000°04'0 0.0
2016-May-17 06:31N 53°33' E 000°04'0 0.0
2016-May-17 05:31N 53°33' E 000°04'0 0.0
2016-May-17 04:31N 53°33' E 000°04'0 0.0
2016-May-17 03:31N 53°33' E 000°04'0 0.1
2016-May-17 02:28N 53°33' E 000°04'0 0.0
2016-May-17 01:31N 53°33' E 000°04'1 1.0
2016-May-17 00:33N 53°34' E 000°03'8 8.4
2016-May-16 23:33N 53°38' W 000°09'1 1.4
2016-May-16 22:31N 53°38' W 000°11'0 0.0
2016-May-16 21:31N 53°38' W 000°11'0 0.0
2016-May-16 20:31N 53°38' W 000°11'0 0.0
2016-May-16 19:31N 53°38' W 000°11'0 0.0
2016-May-16 18:31N 53°38' W 000°11'0 0.0
2016-May-16 17:31N 53°38' W 000°11'0 0.0
2016-May-16 16:31N 53°38' W 000°11'0 0.0
2016-May-16 15:31N 53°38' W 000°11'0 0.0
2016-May-16 14:31N 53°38' W 000°11'0 0.0
2016-May-16 13:31N 53°38' W 000°11'0 0.0
2016-May-16 12:32N 53°38' W 000°11'0 0.0
2016-May-16 11:31N 53°38' W 000°11'0 0.0
2016-May-16 10:32N 53°38' W 000°11'0 0.0
2016-May-16 09:31N 53°38' W 000°11'0 0.0
2016-May-16 08:31N 53°38' W 000°11'0 0.0
2016-May-16 07:31N 53°38' W 000°11'0 0.0
2016-May-16 06:31N 53°38' W 000°11'0 0.0
2016-May-16 05:31N 53°38' W 000°11'0 0.0
2016-May-16 04:31N 53°38' W 000°11'0 0.0
2016-May-16 03:31N 53°38' W 000°11'0 0.0
2016-May-16 02:33N 53°38' W 000°11'0 0.0
2016-May-16 01:33N 53°38' W 000°11'0 0.0
2016-May-16 00:33N 53°38' W 000°11'5 5.4
2016-May-15 23:33N 53°36' W 000°03'10 9.8
2016-May-15 22:33N 53°33' E 000°13'8 7.7
2016-May-15 21:33N 53°35' E 000°25'0 0.1
2016-May-15 20:16N 53°35' E 000°25'0 0.0
2016-May-15 19:31N 53°35' E 000°25'0 0.0
2016-May-15 18:31N 53°35' E 000°25'0 0.0
2016-May-15 17:34N 53°35' E 000°25'0 0.0
2016-May-15 16:25N 53°35' E 000°25'0 0.2
2016-May-15 15:25N 53°35' E 000°25'0 0.1
2016-May-15 14:25N 53°35' E 000°25'0 0.0
2016-May-15 13:28N 53°35' E 000°25'0 0.0
2016-May-15 12:10N 53°35' E 000°25'0 0.0
2016-May-15 11:25N 53°35' E 000°25'0 0.0
2016-May-15 10:31N 53°35' E 000°25'0 0.0
2016-May-15 09:31N 53°35' E 000°25'0 0.1
2016-May-15 08:33N 53°35' E 000°25'16 7.8
2016-May-15 06:31N 53°25' E 000°46'9 9.2
2016-May-15 05:32N 53°21' E 000°59'16 8.0
2016-May-15 03:33N 53°12' E 001°21'7 6.7
2016-May-15 02:33N 53°07' E 001°29'6 6.2
2016-May-15 01:33N 53°03' E 001°37'6 6.1
2016-May-15 00:33N 52°60' E 001°45'7 6.8
2016-May-14 23:33N 52°56' E 001°55'8 7.5
2016-May-14 22:31N 52°51' E 002°04'  

Dump ship's entire track history